aviador You're here:

KPNE Decoded Metar

PHILADELPHIA in PA, USA
Report Time2017-04-25 07:54:00
UTC Time2017-04-25 08:31:06
Flight Rules ifr IFR
Wind060° at 10 Gusting to 19 kt
W.Decomp.*RWY 06: 9.8 kt HW 2.1 kt RCW
RWY 15: 2.1 kt HW 9.8 kt LCW
W.Rank060° ranks 18
Current wind is above 060° avg. (7.2)
Visibility9656 m
Phenomena:Mist
Clouds:Overcast 008 Hf
Expected CloudBase > 800 ft AGL from Temp-Dew spread
Ceiling800 ft
Temp12°C (ISA -3)
Dew Point10°C (88% RH)
AAT8.5°C
QNH1017 hPa
Density Alt-213 ft
Elevation92 ft
Report Wrong Elevation
Raw Report
KPNE 250754Z AUTO 06010G19KT 6SM BR OVC008 12/10 A3002=

Extra information for KPNE:More info

Metar Taf Metar & Taf Last 4 Metars F.Rules Stats Wind Profile Meteogram Temp Stats Airport Information Weather charts Add Link Nearby VenuesMetar ALERT Operation Metar Decoded Social comments

AIRNAV info for KPNE